Time;durP1;ratioP1;P1;durP2;ratioP2;P2;SDS_P1;SDS_P2;PMS_P1;PMS_P2;Temp;Humidity;BMP_temperature;BMP_pressure;BME280_temperature;BME280_humidity;BME280_pressure;Samples;Min_cycle;Max_cycle;Signal;HPM_P1;HPM_P2
2023/04/25 00:01:56;;;;;;;;;;;9.30;99.90;;;;;;5094229;28;20376;-73
2023/04/25 00:04:22;;;;;;;;;;;9.20;99.90;;;;;;5094460;28;19908;-72
2023/04/25 00:06:47;;;;;;;;;;;9.20;99.90;;;;;;5094216;28;19953;-72
2023/04/25 00:09:13;;;;;;;;;;;9.00;99.90;;;;;;5094182;28;19908;-71
2023/04/25 00:11:39;;;;;;;;;;;8.90;99.90;;;;;;5094150;28;20355;-72
2023/04/25 00:14:06;;;;;;;;;;;8.90;99.90;;;;;;5094066;28;19915;-71
2023/04/25 00:16:33;;;;;;;;;;;8.80;99.90;;;;;;5075936;28;19962;-71
2023/04/25 00:18:59;;;;;;;;;;;8.90;99.90;;;;;;5094068;28;19908;-72
2023/04/25 00:21:25;;;;;;;;;;;8.90;99.90;;;;;;5093637;28;20003;-73
2023/04/25 00:23:52;;;;;;;;;;;8.80;99.90;;;;;;5094020;28;20390;-72
2023/04/25 00:26:18;;;;;;;;;;;8.80;99.90;;;;;;5093983;28;19916;-73
2023/04/25 00:28:43;;;;;;;;;;;8.70;99.90;;;;;;5093951;28;19908;-72
2023/04/25 00:31:09;;;;;;;;;;;8.60;99.90;;;;;;5093904;28;19915;-71
2023/04/25 00:33:35;;;;;;;;;;;8.50;99.90;;;;;;5093886;28;19915;-70
2023/04/25 00:36:01;;;;;;;;;;;8.50;99.90;;;;;;5075671;28;19908;-72
2023/04/25 00:38:26;;;;;;;;;;;8.60;99.90;;;;;;5093831;28;19960;-71
2023/04/25 00:40:52;;;;;;;;;;;8.50;99.90;;;;;;5093486;28;19912;-72
2023/04/25 00:43:20;;;;;;;;;;;8.50;99.90;;;;;;5093260;28;20295;-72
2023/04/25 00:45:47;;;;;;;;;;;8.50;99.90;;;;;;5093719;28;20278;-71
2023/04/25 00:48:13;;;;;;;;;;;8.50;99.90;;;;;;5093992;28;20003;-72
2023/04/25 00:50:39;;;;;;;;;;;8.50;99.90;;;;;;5093765;28;20326;-71
2023/04/25 00:53:04;;;;;;;;;;;8.50;99.90;;;;;;5093717;28;19908;-71
2023/04/25 00:55:31;;;;;;;;;;;8.50;99.90;;;;;;5093615;28;19931;-71
2023/04/25 00:57:57;;;;;;;;;;;8.50;99.90;;;;;;5093669;28;20083;-71
2023/04/25 01:00:22;;;;;;;;;;;8.60;99.90;;;;;;5093852;28;20052;-71
2023/04/25 01:02:48;;;;;;;;;;;8.50;99.90;;;;;;5092951;28;19915;-71
2023/04/25 01:05:14;;;;;;;;;;;8.50;99.90;;;;;;5093555;28;19908;-72
2023/04/25 01:07:40;;;;;;;;;;;8.40;99.90;;;;;;5093489;28;20356;-71
2023/04/25 01:10:06;;;;;;;;;;;8.50;99.90;;;;;;5093701;28;19963;-72
2023/04/25 01:12:32;;;;;;;;;;;8.40;99.90;;;;;;5093528;28;19915;-72
2023/04/25 01:14:57;;;;;;;;;;;8.40;99.90;;;;;;5093618;28;20512;-72
2023/04/25 01:17:23;;;;;;;;;;;8.40;99.90;;;;;;5093460;28;19914;-72
2023/04/25 01:19:49;;;;;;;;;;;8.30;99.90;;;;;;5093412;28;19915;-71
2023/04/25 01:22:14;;;;;;;;;;;8.00;99.90;;;;;;5093324;28;20012;-71
2023/04/25 01:24:41;;;;;;;;;;;7.80;99.90;;;;;;5093401;28;20017;-73
2023/04/25 01:27:06;;;;;;;;;;;7.80;99.90;;;;;;5093541;28;19908;-72
2023/04/25 01:29:32;;;;;;;;;;;7.90;99.90;;;;;;5093383;28;19908;-71
2023/04/25 01:31:58;;;;;;;;;;;7.80;99.90;;;;;;5093419;28;19908;-72
2023/04/25 01:34:24;;;;;;;;;;;7.80;99.90;;;;;;5078680;28;19968;-72
2023/04/25 01:36:50;;;;;;;;;;;8.00;99.90;;;;;;5097131;28;19908;-70
2023/04/25 01:39:17;;;;;;;;;;;8.00;99.90;;;;;;5097091;28;20439;-72
2023/04/25 01:41:43;;;;;;;;;;;7.90;99.90;;;;;;5096876;28;19927;-74
2023/04/25 01:44:08;;;;;;;;;;;7.90;99.90;;;;;;5097024;28;19912;-71
2023/04/25 01:46:34;;;;;;;;;;;8.10;99.90;;;;;;5096952;28;19908;-71
2023/04/25 01:49:00;;;;;;;;;;;8.20;99.90;;;;;;5097207;28;19908;-72
2023/04/25 01:51:25;;;;;;;;;;;8.20;99.90;;;;;;5096858;28;19908;-72
2023/04/25 01:53:51;;;;;;;;;;;8.20;99.90;;;;;;5096780;28;19950;-70
2023/04/25 01:56:17;;;;;;;;;;;8.10;99.90;;;;;;5096717;28;19912;-72
2023/04/25 01:58:43;;;;;;;;;;;8.00;99.90;;;;;;5078472;28;19908;-71
2023/04/25 02:01:09;;;;;;;;;;;8.00;99.90;;;;;;5096762;28;19919;-72
2023/04/25 02:03:34;;;;;;;;;;;7.80;99.90;;;;;;5096605;28;19908;-72
2023/04/25 02:06:00;;;;;;;;;;;7.90;99.90;;;;;;5096709;28;19912;-72
2023/04/25 02:08:26;;;;;;;;;;;8.00;99.90;;;;;;5096473;28;19916;-72
2023/04/25 02:10:52;;;;;;;;;;;8.00;99.90;;;;;;5096441;28;19908;-71
2023/04/25 02:13:17;;;;;;;;;;;8.00;99.90;;;;;;5096445;28;20394;-73
2023/04/25 02:15:43;;;;;;;;;;;8.00;99.90;;;;;;5096416;28;19908;-71
2023/04/25 02:18:10;;;;;;;;;;;7.90;99.90;;;;;;5096328;28;19908;-73
2023/04/25 02:20:36;;;;;;;;;;;7.70;99.90;;;;;;5096629;28;19912;-73
2023/04/25 02:23:02;;;;;;;;;;;7.70;99.90;;;;;;5096518;28;20003;-72
2023/04/25 02:25:27;;;;;;;;;;;7.60;99.90;;;;;;5096148;28;19934;-71
2023/04/25 02:27:53;;;;;;;;;;;7.50;99.90;;;;;;5096086;28;20431;-73
2023/04/25 02:30:19;;;;;;;;;;;7.60;99.90;;;;;;5077936;28;19908;-71
2023/04/25 02:32:45;;;;;;;;;;;7.70;99.90;;;;;;5096045;28;19914;-72
2023/04/25 02:35:10;;;;;;;;;;;7.70;99.90;;;;;;5096105;28;19908;-72
2023/04/25 02:37:37;;;;;;;;;;;7.70;99.90;;;;;;5096108;28;19908;-72
2023/04/25 02:40:03;;;;;;;;;;;7.50;99.90;;;;;;5077686;28;19908;-71
2023/04/25 02:42:29;;;;;;;;;;;7.60;99.90;;;;;;5095597;28;20337;-72
2023/04/25 02:44:55;;;;;;;;;;;7.80;99.90;;;;;;5095785;28;19994;-72
2023/04/25 02:47:20;;;;;;;;;;;7.80;99.90;;;;;;5095823;28;19908;-71
2023/04/25 02:49:46;;;;;;;;;;;7.80;99.90;;;;;;5095702;28;19908;-72
2023/04/25 02:52:12;;;;;;;;;;;7.80;99.90;;;;;;5095683;28;19912;-71
2023/04/25 02:54:38;;;;;;;;;;;7.80;99.90;;;;;;5077438;28;19973;-72
2023/04/25 02:57:04;;;;;;;;;;;7.70;99.90;;;;;;5095713;28;19914;-73
2023/04/25 02:59:29;;;;;;;;;;;7.70;99.90;;;;;;5095510;28;19912;-70
2023/04/25 03:01:55;;;;;;;;;;;7.70;99.90;;;;;;5095359;28;19912;-71
2023/04/25 03:04:23;;;;;;;;;;;7.80;99.90;;;;;;5095378;28;19908;-72
2023/04/25 03:06:49;;;;;;;;;;;7.70;99.90;;;;;;5095373;28;19915;-72
2023/04/25 03:09:15;;;;;;;;;;;7.50;99.90;;;;;;5095363;28;19958;-71
2023/04/25 03:11:41;;;;;;;;;;;7.40;99.90;;;;;;5095313;28;19908;-71
2023/04/25 03:14:06;;;;;;;;;;;7.40;99.90;;;;;;5095254;28;19912;-73
2023/04/25 03:16:32;;;;;;;;;;;7.50;99.90;;;;;;5095176;28;19908;-72
2023/04/25 03:18:57;;;;;;;;;;;7.60;99.90;;;;;;5095324;28;20424;-70
2023/04/25 03:21:23;;;;;;;;;;;7.60;99.90;;;;;;5095020;28;19919;-72
2023/04/25 03:23:49;;;;;;;;;;;7.60;99.90;;;;;;5095052;28;19965;-71
2023/04/25 03:26:15;;;;;;;;;;;7.60;99.90;;;;;;5094998;28;19915;-72
2023/04/25 03:28:41;;;;;;;;;;;7.70;99.90;;;;;;5094960;28;20264;-72
2023/04/25 03:31:06;;;;;;;;;;;7.70;99.90;;;;;;5076679;28;19908;-72
2023/04/25 03:33:32;;;;;;;;;;;7.60;99.90;;;;;;5094845;28;20366;-71
2023/04/25 03:35:57;;;;;;;;;;;7.60;99.90;;;;;;5094759;28;19958;-71
2023/04/25 03:38:23;;;;;;;;;;;7.60;99.90;;;;;;5094774;28;20282;-71
2023/04/25 03:40:50;;;;;;;;;;;7.60;99.90;;;;;;5094900;28;19961;-71
2023/04/25 03:43:16;;;;;;;;;;;7.60;99.90;;;;;;5094899;28;20391;-72
2023/04/25 03:45:41;;;;;;;;;;;7.70;99.90;;;;;;5094660;28;19909;-71
2023/04/25 03:48:07;;;;;;;;;;;7.60;99.90;;;;;;5094581;28;19919;-71
2023/04/25 03:50:32;;;;;;;;;;;7.70;99.90;;;;;;5094569;28;19908;-71
2023/04/25 03:52:58;;;;;;;;;;;7.70;99.90;;;;;;5094522;28;19908;-71
2023/04/25 03:55:24;;;;;;;;;;;7.60;99.90;;;;;;5093909;28;19909;-73
2023/04/25 03:57:49;;;;;;;;;;;7.50;99.90;;;;;;5094669;28;19965;-72
2023/04/25 04:00:15;;;;;;;;;;;7.40;99.90;;;;;;5094535;28;19915;-72
2023/04/25 04:02:40;;;;;;;;;;;7.40;99.90;;;;;;5094345;28;19961;-72
2023/04/25 04:05:06;;;;;;;;;;;7.60;99.90;;;;;;5076154;28;19912;-73
2023/04/25 04:07:32;;;;;;;;;;;7.70;99.90;;;;;;5094235;28;19908;-72
2023/04/25 04:09:58;;;;;;;;;;;7.80;99.90;;;;;;5094350;28;19908;-71
2023/04/25 04:12:24;;;;;;;;;;;7.70;99.90;;;;;;5094094;28;19951;-72
2023/04/25 04:14:50;;;;;;;;;;;7.70;99.90;;;;;;5094443;28;19943;-72
2023/04/25 04:17:15;;;;;;;;;;;7.80;99.90;;;;;;5094069;28;19973;-73
2023/04/25 04:19:41;;;;;;;;;;;7.80;99.90;;;;;;5094073;28;20424;-74
2023/04/25 04:22:06;;;;;;;;;;;7.60;99.90;;;;;;5094013;28;20062;-73
2023/04/25 04:24:32;;;;;;;;;;;7.70;99.90;;;;;;5093988;28;19908;-74
2023/04/25 04:26:58;;;;;;;;;;;7.70;99.90;;;;;;5094005;28;19915;-72
2023/04/25 04:29:24;;;;;;;;;;;7.60;99.90;;;;;;5075780;28;20286;-73
2023/04/25 04:31:50;;;;;;;;;;;7.60;99.90;;;;;;5093906;28;19999;-72
2023/04/25 04:34:19;;;;;;;;;;;7.60;99.90;;;;;;5093992;28;20003;-72
2023/04/25 04:36:48;;;;;;;;;;;7.60;99.90;;;;;;5093956;28;19908;-71
2023/04/25 04:39:14;;;;;;;;;;;7.50;99.90;;;;;;5093826;28;19908;-72
2023/04/25 04:41:40;;;;;;;;;;;7.40;99.90;;;;;;5093533;28;19924;-71
2023/04/25 04:44:06;;;;;;;;;;;7.50;99.90;;;;;;5093749;28;19912;-71
2023/04/25 04:46:37;;;;;;;;;;;7.40;99.90;;;;;;5093764;28;19908;-71
2023/04/25 04:49:04;;;;;;;;;;;7.30;99.90;;;;;;5075394;28;19915;-71
2023/04/25 04:51:31;;;;;;;;;;;7.20;99.90;;;;;;5094117;28;20384;-72
2023/04/25 04:53:58;;;;;;;;;;;7.20;99.90;;;;;;5093998;28;19908;-72
2023/04/25 04:56:25;;;;;;;;;;;7.40;99.90;;;;;;5093686;28;20005;-71
2023/04/25 04:58:51;;;;;;;;;;;7.60;99.90;;;;;;5093648;28;19908;-72
2023/04/25 05:01:16;;;;;;;;;;;7.60;99.90;;;;;;5075476;28;20497;-71
2023/04/25 05:03:42;;;;;;;;;;;7.60;99.90;;;;;;5093982;28;19914;-72
2023/04/25 05:06:08;;;;;;;;;;;7.60;99.90;;;;;;5093854;28;19996;-70
2023/04/25 05:08:34;;;;;;;;;;;7.50;99.90;;;;;;5095906;28;20372;-72
2023/04/25 05:10:59;;;;;;;;;;;7.40;99.90;;;;;;5079415;28;19908;-72
2023/04/25 05:13:25;;;;;;;;;;;7.40;99.90;;;;;;5079295;28;20380;-72
2023/04/25 05:15:50;;;;;;;;;;;7.50;99.90;;;;;;5097523;28;19914;-71
2023/04/25 05:18:16;;;;;;;;;;;7.60;99.90;;;;;;5097459;28;19908;-72
2023/04/25 05:20:42;;;;;;;;;;;7.70;99.90;;;;;;5097473;28;20364;-71
2023/04/25 05:23:07;;;;;;;;;;;7.70;99.90;;;;;;5097376;28;19955;-71
2023/04/25 05:25:33;;;;;;;;;;;7.80;99.90;;;;;;5097365;28;19908;-71
2023/04/25 05:27:59;;;;;;;;;;;7.90;99.90;;;;;;5097544;28;19983;-73
2023/04/25 05:30:24;;;;;;;;;;;8.00;99.90;;;;;;5097259;28;19908;-71
2023/04/25 05:32:50;;;;;;;;;;;7.90;99.90;;;;;;5097241;28;19915;-73
2023/04/25 05:35:16;;;;;;;;;;;7.70;99.90;;;;;;5097398;28;19915;-71
2023/04/25 05:37:42;;;;;;;;;;;7.50;99.90;;;;;;5097166;28;19910;-72
2023/04/25 05:40:08;;;;;;;;;;;7.50;99.90;;;;;;5097053;28;20418;-71
2023/04/25 05:42:34;;;;;;;;;;;7.40;99.90;;;;;;5096578;28;19920;-72
2023/04/25 05:45:00;;;;;;;;;;;7.60;99.90;;;;;;5096973;28;19916;-71
2023/04/25 05:47:26;;;;;;;;;;;7.70;99.90;;;;;;5096928;28;20350;-72
2023/04/25 05:49:51;;;;;;;;;;;7.80;99.90;;;;;;5078673;28;19908;-72
2023/04/25 05:52:17;;;;;;;;;;;7.70;99.90;;;;;;5096907;28;20002;-71
2023/04/25 05:54:42;;;;;;;;;;;7.80;99.90;;;;;;5096743;28;19912;-72
2023/04/25 05:57:08;;;;;;;;;;;8.00;99.90;;;;;;5096782;28;19914;-71
2023/04/25 05:59:34;;;;;;;;;;;8.20;99.90;;;;;;5078482;28;20259;-72
2023/04/25 06:02:00;;;;;;;;;;;8.30;99.90;;;;;;5078519;28;19999;-73
2023/04/25 06:04:26;;;;;;;;;;;8.30;99.90;;;;;;5096230;28;19909;-72
2023/04/25 06:06:51;;;;;;;;;;;8.40;99.90;;;;;;5095989;28;19908;-72
2023/04/25 06:09:17;;;;;;;;;;;8.50;99.90;;;;;;5096537;28;19947;-71
2023/04/25 06:11:42;;;;;;;;;;;8.60;99.90;;;;;;5096570;28;19908;-72
2023/04/25 06:14:08;;;;;;;;;;;8.60;99.90;;;;;;5096624;28;19908;-72
2023/04/25 06:16:34;;;;;;;;;;;8.60;99.90;;;;;;5096353;28;19908;-71
2023/04/25 06:18:59;;;;;;;;;;;8.70;99.90;;;;;;5095696;28;19908;-72
2023/04/25 06:21:25;;;;;;;;;;;9.00;99.90;;;;;;5096300;28;19919;-71
2023/04/25 06:23:51;;;;;;;;;;;9.20;99.90;;;;;;5096580;28;20004;-71
2023/04/25 06:26:16;;;;;;;;;;;9.30;99.90;;;;;;5096174;28;20374;-72
2023/04/25 06:28:42;;;;;;;;;;;9.30;99.90;;;;;;5096126;28;19909;-71
2023/04/25 06:31:07;;;;;;;;;;;9.50;99.90;;;;;;5096143;28;20367;-72
2023/04/25 06:33:33;;;;;;;;;;;9.70;99.90;;;;;;5096092;28;19965;-71
2023/04/25 06:35:59;;;;;;;;;;;9.80;99.90;;;;;;5095891;28;19993;-72
2023/04/25 06:38:24;;;;;;;;;;;10.10;99.90;;;;;;5077731;28;19912;-72
2023/04/25 06:40:50;;;;;;;;;;;10.40;99.90;;;;;;5095667;28;20371;-72
2023/04/25 06:43:15;;;;;;;;;;;10.50;99.90;;;;;;5096015;28;19947;-71
2023/04/25 06:45:42;;;;;;;;;;;10.70;99.90;;;;;;5095750;28;20443;-71
2023/04/25 06:48:07;;;;;;;;;;;10.90;99.90;;;;;;5096140;28;19934;-73
2023/04/25 06:50:33;;;;;;;;;;;11.30;99.90;;;;;;5077586;28;20376;-72
2023/04/25 06:53:01;;;;;;;;;;;11.60;99.90;;;;;;5095706;28;19915;-71
2023/04/25 06:55:27;;;;;;;;;;;12.00;99.90;;;;;;5095582;28;19956;-73
2023/04/25 06:57:52;;;;;;;;;;;12.80;99.90;;;;;;5095158;28;19991;-72
2023/04/25 07:00:18;;;;;;;;;;;13.60;99.90;;;;;;5095696;28;20422;-72
2023/04/25 07:02:45;;;;;;;;;;;13.60;99.90;;;;;;5095738;28;19908;-73
2023/04/25 07:05:10;;;;;;;;;;;13.50;99.90;;;;;;5095498;28;19908;-73
2023/04/25 07:07:37;;;;;;;;;;;13.90;99.90;;;;;;5095022;28;20249;-72
2023/04/25 07:10:03;;;;;;;;;;;14.10;99.90;;;;;;5077117;28;19909;-73
2023/04/25 07:12:30;;;;;;;;;;;14.50;99.90;;;;;;5095452;28;19914;-72
2023/04/25 07:14:55;;;;;;;;;;;14.90;99.90;;;;;;5095240;28;19908;-71
2023/04/25 07:17:21;;;;;;;;;;;15.30;99.90;;;;;;5095499;28;19914;-72
2023/04/25 07:19:47;;;;;;;;;;;15.50;99.90;;;;;;5095228;28;20428;-71
2023/04/25 07:22:12;;;;;;;;;;;15.50;99.90;;;;;;5095096;28;19913;-73
2023/04/25 07:24:38;;;;;;;;;;;15.50;99.90;;;;;;5095498;28;20420;-71
2023/04/25 07:27:03;;;;;;;;;;;15.30;99.90;;;;;;5095142;28;20368;-72
2023/04/25 07:29:30;;;;;;;;;;;15.40;99.90;;;;;;5095352;28;19908;-72
2023/04/25 07:31:55;;;;;;;;;;;15.10;99.90;;;;;;5094401;28;20382;-72
2023/04/25 07:34:21;;;;;;;;;;;15.00;99.90;;;;;;5095153;28;19908;-72
2023/04/25 07:36:46;;;;;;;;;;;14.70;99.90;;;;;;5094806;28;20301;-72
2023/04/25 07:39:12;;;;;;;;;;;14.40;99.90;;;;;;5094932;28;19908;-72
2023/04/25 07:41:37;;;;;;;;;;;14.50;99.90;;;;;;5094797;28;19924;-72
2023/04/25 07:44:03;;;;;;;;;;;14.90;99.90;;;;;;5094863;28;19992;-72
2023/04/25 07:46:29;;;;;;;;;;;15.40;99.90;;;;;;5076435;28;19915;-74
2023/04/25 07:48:54;;;;;;;;;;;15.50;99.90;;;;;;5094707;28;19908;-73
2023/04/25 07:51:21;;;;;;;;;;;15.50;99.90;;;;;;5094581;28;19908;-72
2023/04/25 07:53:47;;;;;;;;;;;15.60;99.90;;;;;;5094722;28;19918;-70
2023/04/25 07:56:13;;;;;;;;;;;15.70;99.90;;;;;;5094659;28;19998;-71
2023/04/25 07:58:38;;;;;;;;;;;15.70;99.90;;;;;;5094558;28;20434;-73
2023/04/25 08:01:04;;;;;;;;;;;15.60;99.90;;;;;;5094232;28;19918;-71
2023/04/25 08:03:30;;;;;;;;;;;15.30;99.90;;;;;;5094292;28;19994;-72
2023/04/25 08:05:55;;;;;;;;;;;15.40;99.90;;;;;;5094616;28;20007;-73
2023/04/25 08:08:21;;;;;;;;;;;14.80;99.90;;;;;;5094374;28;19908;-72
2023/04/25 08:10:51;;;;;;;;;;;14.40;99.90;;;;;;5094379;28;19945;-72
2023/04/25 08:13:16;;;;;;;;;;;14.20;99.90;;;;;;5094825;28;19908;-72
2023/04/25 08:15:42;;;;;;;;;;;14.20;99.90;;;;;;5076002;28;20291;-72
2023/04/25 08:18:08;;;;;;;;;;;14.40;99.90;;;;;;5094099;28;19919;-72
2023/04/25 08:20:33;;;;;;;;;;;14.60;99.90;;;;;;5075815;28;19915;-72
2023/04/25 08:22:59;;;;;;;;;;;15.40;99.90;;;;;;5094065;28;20405;-73
2023/04/25 08:25:25;;;;;;;;;;;16.70;99.90;;;;;;5094034;28;19908;-74
2023/04/25 08:27:50;;;;;;;;;;;16.70;99.90;;;;;;5093982;28;19908;-72
2023/04/25 08:30:16;;;;;;;;;;;16.70;99.90;;;;;;5076117;28;20275;-71
2023/04/25 08:32:41;;;;;;;;;;;16.60;99.90;;;;;;5094018;28;19908;-73
2023/04/25 08:35:07;;;;;;;;;;;16.60;99.90;;;;;;5093936;28;20007;-73
2023/04/25 08:37:33;;;;;;;;;;;16.80;99.90;;;;;;5094077;28;19915;-71
2023/04/25 08:39:58;;;;;;;;;;;17.40;99.90;;;;;;5094173;28;19908;-72
2023/04/25 08:42:25;;;;;;;;;;;18.70;99.90;;;;;;5093138;28;20383;-73
2023/04/25 08:44:52;;;;;;;;;;;18.80;99.90;;;;;;5093878;28;19908;-73
2023/04/25 08:47:21;;;;;;;;;;;18.70;99.90;;;;;;5093786;28;19999;-72
2023/04/25 08:49:47;;;;;;;;;;;18.40;99.90;;;;;;5093771;28;19908;-73
2023/04/25 08:52:13;;;;;;;;;;;18.40;99.90;;;;;;5093709;28;20410;-71
2023/04/25 08:54:43;;;;;;;;;;;19.00;99.90;;;;;;5093673;28;19989;-73
2023/04/25 08:57:11;;;;;;;;;;;19.00;99.90;;;;;;5093634;28;19994;-72
2023/04/25 08:59:39;;;;;;;;;;;18.80;99.90;;;;;;5093674;28;19912;-73
2023/04/25 09:02:04;;;;;;;;;;;19.60;99.90;;;;;;5093576;28;19962;-74
2023/04/25 09:04:31;;;;;;;;;;;20.70;99.90;;;;;;5093746;28;20004;-72
2023/04/25 09:06:56;;;;;;;;;;;20.90;99.90;;;;;;5093610;28;19908;-74
2023/04/25 09:09:23;;;;;;;;;;;20.60;99.90;;;;;;5093571;28;19908;-72
2023/04/25 09:11:48;;;;;;;;;;;20.70;99.90;;;;;;5093813;28;19909;-72
2023/04/25 09:14:21;;;;;;;;;;;20.60;99.90;;;;;;5093760;28;20022;-71
2023/04/25 09:16:55;;;;;;;;;;;20.50;99.90;;;;;;5093675;28;19908;-72
2023/04/25 09:19:25;;;;;;;;;;;20.00;99.90;;;;;;5093479;28;19911;-72
2023/04/25 09:21:51;;;;;;;;;;;20.20;99.90;;;;;;5093445;28;20372;-73
2023/04/25 09:24:29;;;;;;;;;;;21.00;99.90;;;;;;5093437;28;19908;-72
2023/04/25 09:26:55;;;;;;;;;;;20.10;99.90;;;;;;5093549;28;19908;-72
2023/04/25 09:29:28;;;;;;;;;;;21.70;99.90;;;;;;5093398;28;19914;-73
2023/04/25 09:32:10;;;;;;;;;;;20.80;99.90;;;;;;5093475;28;19954;-72
2023/04/25 09:34:40;;;;;;;;;;;19.10;99.90;;;;;;5093433;28;19982;-72
2023/04/25 09:37:06;;;;;;;;;;;22.40;99.90;;;;;;5093316;28;19916;-71
2023/04/25 09:39:32;;;;;;;;;;;24.40;99.90;;;;;;5093435;28;19909;-73
2023/04/25 09:41:59;;;;;;;;;;;25.30;99.90;;;;;;5092983;28;19924;-73
2023/04/25 09:44:24;;;;;;;;;;;24.40;99.90;;;;;;5093184;28;20264;-72
2023/04/25 09:46:53;;;;;;;;;;;21.40;99.90;;;;;;5093257;28;19961;-74
2023/04/25 09:49:22;;;;;;;;;;;19.60;99.90;;;;;;5093374;28;20409;-73
2023/04/25 09:51:57;;;;;;;;;;;19.00;99.90;;;;;;5075009;28;19986;-72
2023/04/25 09:54:26;;;;;;;;;;;19.10;99.90;;;;;;5095143;28;19916;-72
2023/04/25 09:56:52;;;;;;;;;;;23.50;99.90;;;;;;5096869;28;20360;-73
2023/04/25 09:59:20;;;;;;;;;;;23.90;99.90;;;;;;5096713;28;20284;-72
2023/04/25 10:01:46;;;;;;;;;;;23.70;99.90;;;;;;5096806;28;19913;-72
2023/04/25 10:04:12;;;;;;;;;;;23.30;99.90;;;;;;5078458;28;19915;-72
2023/04/25 10:06:38;;;;;;;;;;;22.80;99.90;;;;;;5096539;28;19912;-72
2023/04/25 10:09:04;;;;;;;;;;;22.10;99.90;;;;;;5096596;28;20368;-74
2023/04/25 10:11:30;;;;;;;;;;;25.00;99.90;;;;;;5078308;28;19957;-73
2023/04/25 10:13:56;;;;;;;;;;;26.90;99.90;;;;;;5096747;28;19930;-74
2023/04/25 10:16:21;;;;;;;;;;;24.30;99.90;;;;;;5096510;28;19908;-73
2023/04/25 10:18:48;;;;;;;;;;;21.70;99.90;;;;;;5096478;28;19912;-73
2023/04/25 10:21:14;;;;;;;;;;;20.30;99.90;;;;;;5096180;28;19968;-72
2023/04/25 10:23:40;;;;;;;;;;;20.30;99.90;;;;;;5096256;28;19915;-72
2023/04/25 10:26:07;;;;;;;;;;;20.60;99.90;;;;;;5096325;28;19908;-72
2023/04/25 10:28:52;;;;;;;;;;;20.60;99.90;;;;;;5096191;28;20356;-74
2023/04/25 10:31:18;;;;;;;;;;;21.20;99.90;;;;;;5095940;28;19958;-73
2023/04/25 10:33:43;;;;;;;;;;;24.10;99.90;;;;;;5096098;28;19912;-74
2023/04/25 10:36:13;;;;;;;;;;;25.20;99.90;;;;;;5096027;28;19930;-72
2023/04/25 10:38:39;;;;;;;;;;;22.80;99.90;;;;;;5095930;28;19938;-72
2023/04/25 10:41:08;;;;;;;;;;;21.00;99.90;;;;;;5095751;28;19980;-73
2023/04/25 10:43:35;;;;;;;;;;;20.70;99.90;;;;;;5096397;28;19926;-72
2023/04/25 10:46:01;;;;;;;;;;;25.60;99.90;;;;;;5095996;28;20293;-74
2023/04/25 10:48:27;;;;;;;;;;;26.40;99.90;;;;;;5095893;28;20287;-73
2023/04/25 10:51:09;;;;;;;;;;;27.90;99.90;;;;;;5077547;28;19912;-72
2023/04/25 10:53:35;;;;;;;;;;;28.20;99.90;;;;;;5077513;28;20368;-73
2023/04/25 10:56:08;;;;;;;;;;;31.40;99.90;;;;;;5095843;28;19916;-73
2023/04/25 10:58:34;;;;;;;;;;;29.40;99.90;;;;;;5095618;28;19945;-73
2023/04/25 11:01:01;;;;;;;;;;;30.60;99.90;;;;;;5095646;28;19912;-74
2023/04/25 11:03:26;;;;;;;;;;;34.20;99.90;;;;;;5077378;28;19946;-73
2023/04/25 11:05:53;;;;;;;;;;;30.90;99.90;;;;;;5077269;28;20336;-74
2023/04/25 11:08:24;;;;;;;;;;;28.10;99.90;;;;;;5095352;28;19912;-73
2023/04/25 11:10:50;;;;;;;;;;;27.20;99.90;;;;;;5095555;28;19908;-72
2023/04/25 11:13:16;;;;;;;;;;;24.00;99.90;;;;;;5095357;28;19908;-73
2023/04/25 11:15:42;;;;;;;;;;;24.60;99.90;;;;;;5077092;28;19912;-73
2023/04/25 11:18:07;;;;;;;;;;;24.30;99.90;;;;;;5095239;28;19919;-72
2023/04/25 11:20:33;;;;;;;;;;;23.50;99.90;;;;;;5095436;28;20415;-73
2023/04/25 11:22:59;;;;;;;;;;;23.60;99.90;;;;;;5095348;28;19908;-73
2023/04/25 11:25:25;;;;;;;;;;;23.00;99.90;;;;;;5095030;28;20364;-72
2023/04/25 11:27:58;;;;;;;;;;;22.10;99.90;;;;;;5095100;28;19916;-72
2023/04/25 11:30:24;;;;;;;;;;;22.20;99.90;;;;;;5094997;28;19961;-72
2023/04/25 11:32:51;;;;;;;;;;;22.50;99.90;;;;;;5095112;28;20353;-72
2023/04/25 11:35:18;;;;;;;;;;;21.90;99.90;;;;;;5076674;28;20326;-73
2023/04/25 11:37:43;;;;;;;;;;;21.50;99.90;;;;;;5078678;28;20028;-71
2023/04/25 11:40:09;;;;;;;;;;;21.50;99.90;;;;;;5078393;28;20339;-72
2023/04/25 11:42:39;;;;;;;;;;;21.90;99.90;;;;;;5084610;28;19920;-72
2023/04/25 11:45:05;;;;;;;;;;;22.40;99.90;;;;;;5083211;28;19974;-72
2023/04/25 11:47:31;;;;;;;;;;;23.30;99.90;;;;;;5082861;28;20007;-73
2023/04/25 11:49:58;;;;;;;;;;;26.60;99.90;;;;;;5084415;28;19911;-72
2023/04/25 11:52:23;;;;;;;;;;;26.10;99.90;;;;;;5084143;28;19909;-74
2023/04/25 11:54:49;;;;;;;;;;;24.80;99.90;;;;;;5082686;28;19992;-73
2023/04/25 11:57:18;;;;;;;;;;;23.00;99.90;;;;;;5084233;28;19908;-72
2023/04/25 11:59:44;;;;;;;;;;;21.70;99.90;;;;;;5063979;28;19915;-71
2023/04/25 12:02:23;;;;;;;;;;;20.70;99.90;;;;;;5084911;28;20379;-73
2023/04/25 12:04:49;;;;;;;;;;;20.90;99.90;;;;;;5084823;28;19912;-72
2023/04/25 12:07:14;;;;;;;;;;;20.60;99.90;;;;;;5064895;28;19962;-72
2023/04/25 12:09:41;;;;;;;;;;;20.40;99.90;;;;;;5083718;28;19915;-72
2023/04/25 12:12:09;;;;;;;;;;;20.50;99.90;;;;;;5081749;28;19916;-71
2023/04/25 12:14:35;;;;;;;;;;;20.20;99.90;;;;;;5073893;28;19913;-72
2023/04/25 12:17:02;;;;;;;;;;;20.20;99.90;;;;;;5073501;28;19909;-72
2023/04/25 12:19:34;;;;;;;;;;;22.10;99.90;;;;;;5074393;28;19948;-73
2023/04/25 12:22:00;;;;;;;;;;;24.60;99.90;;;;;;5081195;28;19919;-73
2023/04/25 12:24:26;;;;;;;;;;;23.00;99.90;;;;;;5093980;28;19908;-72
2023/04/25 12:27:02;;;;;;;;;;;20.60;99.90;;;;;;5093992;28;19908;-72
2023/04/25 12:29:29;;;;;;;;;;;20.60;99.90;;;;;;5093967;28;19912;-72
2023/04/25 12:31:55;;;;;;;;;;;20.70;99.90;;;;;;5075815;28;20010;-72
2023/04/25 12:34:21;;;;;;;;;;;21.00;99.90;;;;;;5093867;28;20375;-72
2023/04/25 12:36:47;;;;;;;;;;;20.30;99.90;;;;;;5094015;28;19937;-72
2023/04/25 12:39:23;;;;;;;;;;;19.10;99.90;;;;;;5093926;28;19930;-71
2023/04/25 12:41:49;;;;;;;;;;;18.70;99.90;;;;;;5093466;28;19990;-71
2023/04/25 12:44:15;;;;;;;;;;;19.20;99.90;;;;;;5093757;28;19912;-72
2023/04/25 12:46:41;;;;;;;;;;;20.10;99.90;;;;;;5093765;28;20425;-73
2023/04/25 12:49:08;;;;;;;;;;;24.70;99.90;;;;;;5093770;28;19955;-74
2023/04/25 12:51:34;;;;;;;;;;;26.00;99.90;;;;;;5093886;28;20384;-73
2023/04/25 12:54:00;;;;;;;;;;;26.30;99.90;;;;;;5093851;28;20376;-73
2023/04/25 12:56:26;;;;;;;;;;;25.50;99.90;;;;;;5093693;28;19909;-73
2023/04/25 12:58:52;;;;;;;;;;;24.20;99.90;;;;;;5093620;28;19962;-74
2023/04/25 13:01:17;;;;;;;;;;;23.80;99.90;;;;;;5093536;28;19959;-71
2023/04/25 13:03:43;;;;;;;;;;;22.70;99.90;;;;;;5093748;28;19912;-73
2023/04/25 13:06:08;;;;;;;;;;;21.00;99.90;;;;;;5093572;28;19974;-74
2023/04/25 13:08:36;;;;;;;;;;;20.20;99.90;;;;;;5093570;28;19909;-73
2023/04/25 13:11:02;;;;;;;;;;;19.60;99.90;;;;;;5075643;28;19958;-73
2023/04/25 13:13:28;;;;;;;;;;;20.40;99.90;;;;;;5093512;28;20396;-73
2023/04/25 13:15:54;;;;;;;;;;;21.20;99.90;;;;;;5093552;28;19966;-72
2023/04/25 13:18:19;;;;;;;;;;;21.80;99.90;;;;;;5093486;28;19909;-73
2023/04/25 13:20:46;;;;;;;;;;;23.30;99.90;;;;;;5093563;28;20372;-74
2023/04/25 13:23:12;;;;;;;;;;;23.60;99.90;;;;;;5093437;28;19908;-73
2023/04/25 13:25:37;;;;;;;;;;;23.80;99.90;;;;;;5093670;28;19908;-73
2023/04/25 13:28:03;;;;;;;;;;;22.40;99.90;;;;;;5093486;28;20431;-74
2023/04/25 13:30:28;;;;;;;;;;;21.70;99.90;;;;;;5112795;28;19915;-73
2023/04/25 13:32:56;;;;;;;;;;;21.20;99.90;;;;;;5097253;28;19915;-73
2023/04/25 13:35:22;;;;;;;;;;;21.00;99.90;;;;;;5097373;28;19908;-72
2023/04/25 13:37:47;;;;;;;;;;;20.60;99.90;;;;;;5097150;28;19920;-73
2023/04/25 13:40:13;;;;;;;;;;;20.70;99.90;;;;;;5097120;28;19916;-73
2023/04/25 13:42:40;;;;;;;;;;;20.60;99.90;;;;;;5096781;28;20016;-73
2023/04/25 13:45:06;;;;;;;;;;;20.20;99.90;;;;;;5097002;28;19908;-72
2023/04/25 13:47:31;;;;;;;;;;;19.90;99.90;;;;;;5096901;28;20376;-73
2023/04/25 13:49:57;;;;;;;;;;;20.30;99.90;;;;;;5097663;28;19912;-73
2023/04/25 13:52:24;;;;;;;;;;;20.30;99.90;;;;;;5096832;28;19908;-73
2023/04/25 13:54:50;;;;;;;;;;;20.60;99.90;;;;;;5096777;28;19915;-73
2023/04/25 13:57:15;;;;;;;;;;;20.90;99.90;;;;;;5096763;28;19914;-73
2023/04/25 13:59:41;;;;;;;;;;;21.20;99.90;;;;;;5096775;28;19908;-72
2023/04/25 14:02:07;;;;;;;;;;;21.80;99.90;;;;;;5096567;28;20265;-73
2023/04/25 14:04:33;;;;;;;;;;;22.50;99.90;;;;;;5096651;28;20365;-73
2023/04/25 14:06:58;;;;;;;;;;;23.10;99.90;;;;;;5096584;28;19973;-72
2023/04/25 14:09:25;;;;;;;;;;;21.90;99.90;;;;;;5096491;28;19908;-73
2023/04/25 14:11:52;;;;;;;;;;;20.80;99.90;;;;;;5096698;28;19946;-72
2023/04/25 14:14:18;;;;;;;;;;;20.20;99.90;;;;;;5096495;28;19915;-73
2023/04/25 14:16:43;;;;;;;;;;;19.70;99.90;;;;;;5096447;28;19908;-72
2023/04/25 14:19:09;;;;;;;;;;;19.60;99.90;;;;;;5096370;28;19908;-73